Time;durP1;ratioP1;P1;durP2;ratioP2;P2;SDS_P1;SDS_P2;PMS_P1;PMS_P2;Temp;Humidity;BMP_temperature;BMP_pressure;BME280_temperature;BME280_humidity;BME280_pressure;Samples;Min_cycle;Max_cycle;Signal;HPM_P1;HPM_P2
2023/06/16 00:00:21;;;;;;;3.00;2.80;;;19.50;99.90;;;;;;5017665;28;20196;-76
2023/06/16 00:02:49;;;;;;;3.17;2.97;;;19.40;99.90;;;;;;5018553;28;20234;-75
2023/06/16 00:05:16;;;;;;;3.38;3.10;;;19.40;99.90;;;;;;5017356;28;20232;-75
2023/06/16 00:07:43;;;;;;;3.30;3.00;;;19.30;99.90;;;;;;5019906;28;20222;-76
2023/06/16 00:10:11;;;;;;;3.20;3.00;;;19.20;99.90;;;;;;5039098;28;20203;-75
2023/06/16 00:12:40;;;;;;;2.95;2.75;;;19.10;99.90;;;;;;5020069;28;20705;-75
2023/06/16 00:15:10;;;;;;;3.03;2.83;;;19.10;99.90;;;;;;5018224;28;20291;-76
2023/06/16 00:17:44;;;;;;;3.10;2.90;;;19.20;99.90;;;;;;5015651;28;20220;-75
2023/06/16 00:20:12;;;;;;;3.67;3.38;;;19.20;99.90;;;;;;5017701;28;20246;-75
2023/06/16 00:22:39;;;;;;;3.08;2.88;;;19.30;99.90;;;;;;5015247;28;20201;-75
2023/06/16 00:25:07;;;;;;;3.10;2.90;;;19.40;99.90;;;;;;5016704;28;20294;-75
2023/06/16 00:27:35;;;;;;;3.28;3.08;;;19.50;99.90;;;;;;5014315;28;20247;-76
2023/06/16 00:30:04;;;;;;;3.75;3.45;;;19.50;99.90;;;;;;5018798;28;20204;-76
2023/06/16 00:32:31;;;;;;;3.10;2.80;;;19.60;99.90;;;;;;5017251;28;20195;-76
2023/06/16 00:34:58;;;;;;;3.05;2.85;;;19.50;99.90;;;;;;5016085;28;20628;-76
2023/06/16 00:37:25;;;;;;;3.63;3.33;;;19.50;99.90;;;;;;5014868;28;20329;-75
2023/06/16 00:39:52;;;;;;;3.17;2.97;;;19.50;99.90;;;;;;5017955;28;20286;-75
2023/06/16 00:42:19;;;;;;;3.53;3.25;;;19.50;99.90;;;;;;5020574;28;20226;-76
2023/06/16 00:44:47;;;;;;;3.05;2.85;;;19.50;99.90;;;;;;5016404;28;20199;-75
2023/06/16 00:47:14;;;;;;;3.22;3.00;;;19.50;99.90;;;;;;5016019;28;20215;-75
2023/06/16 00:49:41;;;;;;;3.35;3.05;;;19.50;99.90;;;;;;5014519;28;20281;-76
2023/06/16 00:52:13;;;;;;;3.58;2.75;;;19.40;99.90;;;;;;5015924;28;20239;-75
2023/06/16 00:54:41;;;;;;;3.15;2.90;;;19.50;99.90;;;;;;5016261;28;20196;-75
2023/06/16 00:57:08;;;;;;;3.10;2.90;;;19.40;99.90;;;;;;5015452;28;20224;-76
2023/06/16 00:59:35;;;;;;;3.38;2.90;;;19.40;99.90;;;;;;5016682;28;20242;-75
2023/06/16 01:02:04;;;;;;;3.45;3.15;;;19.30;99.90;;;;;;5015703;28;20235;-76
2023/06/16 01:04:31;;;;;;;3.10;2.90;;;19.20;99.90;;;;;;5016570;28;20266;-75
2023/06/16 01:07:05;;;;;;;3.65;3.40;;;19.20;99.90;;;;;;5029999;28;20254;-75
2023/06/16 01:09:40;;;;;;;3.30;3.00;;;19.10;99.90;;;;;;5019147;28;20200;-75
2023/06/16 01:12:17;;;;;;;3.05;2.78;;;19.10;99.90;;;;;;5018571;28;20206;-76
2023/06/16 01:14:53;;;;;;;2.88;2.67;;;19.10;99.90;;;;;;5022484;28;20207;-76
2023/06/16 01:17:24;;;;;;;3.63;3.35;;;19.10;99.90;;;;;;5014591;28;20222;-75
2023/06/16 01:19:57;;;;;;;3.50;3.20;;;19.00;99.90;;;;;;5017761;28;20199;-75
2023/06/16 01:22:40;;;;;;;3.25;3.05;;;19.00;99.90;;;;;;5019410;28;20223;-76
2023/06/16 01:25:13;;;;;;;3.13;2.92;;;19.00;99.90;;;;;;5019854;28;20261;-76
2023/06/16 01:27:47;;;;;;;3.60;3.30;;;19.00;99.90;;;;;;5020851;28;20264;-75
2023/06/16 01:30:15;;;;;;;3.55;3.25;;;19.00;99.90;;;;;;5022079;28;20211;-76
2023/06/16 01:32:44;;;;;;;3.58;2.92;;;19.10;99.90;;;;;;5018485;28;20200;-76
2023/06/16 01:35:12;;;;;;;3.63;3.35;;;19.00;99.90;;;;;;5019247;28;20265;-76
2023/06/16 01:37:40;;;;;;;3.08;2.88;;;19.00;99.90;;;;;;5021109;28;20227;-75
2023/06/16 01:40:10;;;;;;;3.05;2.85;;;18.90;99.90;;;;;;5020024;28;20284;-76
2023/06/16 01:42:37;;;;;;;3.00;2.80;;;18.90;99.90;;;;;;5017059;28;20246;-75
2023/06/16 01:45:06;;;;;;;3.13;2.92;;;18.90;99.90;;;;;;5019009;28;20319;-76
2023/06/16 01:47:34;;;;;;;3.13;2.92;;;18.80;99.90;;;;;;5041648;28;20451;-77
2023/06/16 01:50:02;;;;;;;3.70;3.45;;;18.80;99.90;;;;;;5022467;28;20235;-76
2023/06/16 01:52:29;;;;;;;3.58;2.80;;;18.80;99.90;;;;;;5024214;28;20196;-76
2023/06/16 01:54:56;;;;;;;3.47;3.17;;;18.80;99.90;;;;;;5019978;28;20212;-75
2023/06/16 01:57:25;;;;;;;3.33;3.10;;;18.70;99.90;;;;;;5020663;28;20216;-75
2023/06/16 02:00:00;;;;;;;3.33;3.13;;;18.70;99.90;;;;;;5023960;28;20261;-75
2023/06/16 02:02:29;;;;;;;3.55;3.25;;;18.70;99.90;;;;;;5018060;28;20957;-76
2023/06/16 02:04:57;;;;;;;3.53;3.22;;;18.70;99.90;;;;;;5036162;28;20203;-75
2023/06/16 02:07:32;;;;;;;3.55;3.30;;;18.60;99.90;;;;;;5021423;28;20231;-75
2023/06/16 02:10:00;;;;;;;3.72;3.42;;;18.50;99.90;;;;;;5023615;28;20465;-76
2023/06/16 02:12:29;;;;;;;3.28;3.08;;;18.50;99.90;;;;;;5024105;28;20211;-76
2023/06/16 02:14:56;;;;;;;3.28;3.08;;;18.50;99.90;;;;;;5023652;28;20642;-77
2023/06/16 02:17:26;;;;;;;3.10;2.90;;;18.50;99.90;;;;;;5015200;28;20212;-75
2023/06/16 02:19:53;;;;;;;3.30;3.00;;;18.50;99.90;;;;;;5028307;28;20196;-76
2023/06/16 02:22:21;;;;;;;3.78;3.47;;;18.50;99.90;;;;;;5029650;28;20200;-74
2023/06/16 02:24:48;;;;;;;3.13;2.92;;;18.50;99.90;;;;;;5017461;28;20281;-75
2023/06/16 02:27:15;;;;;;;3.13;2.92;;;18.50;99.90;;;;;;5021157;28;20231;-75
2023/06/16 02:29:44;;;;;;;4.80;3.30;;;18.40;99.90;;;;;;5020558;28;20195;-75
2023/06/16 02:32:11;;;;;;;3.30;3.10;;;18.40;99.90;;;;;;5020328;28;20207;-76
2023/06/16 02:34:38;;;;;;;3.72;3.42;;;18.40;99.90;;;;;;5014695;28;20282;-75
2023/06/16 02:37:05;;;;;;;3.60;3.30;;;18.40;99.90;;;;;;5014292;28;20725;-75
2023/06/16 02:39:32;;;;;;;3.97;3.67;;;18.40;99.90;;;;;;5011575;28;20827;-75
2023/06/16 02:41:59;;;;;;;3.42;3.13;;;18.30;99.90;;;;;;5016370;28;20764;-76
2023/06/16 02:44:26;;;;;;;3.55;3.28;;;18.30;99.90;;;;;;5017471;28;20207;-76
2023/06/16 02:46:56;;;;;;;3.58;3.28;;;18.30;99.90;;;;;;5018996;28;20269;-75
2023/06/16 02:49:23;;;;;;;3.67;3.38;;;18.30;99.90;;;;;;5015431;28;20197;-75
2023/06/16 02:51:50;;;;;;;3.30;3.00;;;18.20;99.90;;;;;;5021470;28;20250;-75
2023/06/16 02:54:17;;;;;;;3.50;3.20;;;18.20;99.90;;;;;;5017037;28;20403;-75
2023/06/16 02:56:44;;;;;;;3.25;3.05;;;18.20;99.90;;;;;;5024692;28;20661;-75
2023/06/16 02:59:11;;;;;;;3.25;3.05;;;18.20;99.90;;;;;;5019754;28;20212;-75
2023/06/16 03:01:38;;;;;;;3.10;2.90;;;18.20;99.90;;;;;;5027546;28;20214;-76
2023/06/16 03:04:07;;;;;;;3.33;3.13;;;18.20;99.90;;;;;;5020625;28;20208;-76
2023/06/16 03:06:34;;;;;;;3.22;3.03;;;18.20;99.90;;;;;;5014574;28;20960;-75
2023/06/16 03:09:03;;;;;;;3.25;3.03;;;18.10;99.90;;;;;;5014960;28;20593;-75
2023/06/16 03:11:30;;;;;;;3.45;3.17;;;18.10;99.90;;;;;;5016000;28;20203;-74
2023/06/16 03:13:57;;;;;;;3.28;3.08;;;18.10;99.90;;;;;;5013946;28;20207;-76
2023/06/16 03:16:27;;;;;;;3.45;3.15;;;18.10;99.90;;;;;;5018763;28;20196;-75
2023/06/16 03:18:55;;;;;;;3.72;3.42;;;18.10;99.90;;;;;;5013972;28;20199;-75
2023/06/16 03:21:24;;;;;;;3.95;3.65;;;18.10;99.90;;;;;;5020883;28;20226;-76
2023/06/16 03:23:51;;;;;;;3.38;3.17;;;18.00;99.90;;;;;;5013332;28;20196;-76
2023/06/16 03:26:19;;;;;;;3.92;3.63;;;18.00;99.90;;;;;;5018598;28;20196;-76
2023/06/16 03:28:45;;;;;;;4.53;3.90;;;17.90;99.90;;;;;;5017617;28;20270;-76
2023/06/16 03:31:12;;;;;;;3.47;3.28;;;17.80;99.90;;;;;;5014931;28;20207;-76
2023/06/16 03:33:39;;;;;;;3.38;3.08;;;17.80;99.90;;;;;;5018352;28;20220;-76
2023/06/16 03:36:07;;;;;;;3.70;3.50;;;17.80;99.90;;;;;;5014688;28;20201;-76
2023/06/16 03:38:36;;;;;;;3.30;3.00;;;17.80;99.90;;;;;;5030429;28;20202;-75
2023/06/16 03:41:03;;;;;;;3.80;3.50;;;17.80;99.90;;;;;;5025807;28;20212;-75
2023/06/16 03:43:30;;;;;;;3.13;2.92;;;17.90;99.90;;;;;;5016800;28;20255;-76
2023/06/16 03:45:57;;;;;;;3.63;3.33;;;17.90;99.90;;;;;;5019120;28;20722;-76
2023/06/16 03:48:23;;;;;;;3.25;3.05;;;17.90;99.90;;;;;;5020382;28;20216;-76
2023/06/16 03:50:52;;;;;;;3.95;3.65;;;18.00;99.90;;;;;;5016617;28;20226;-75
2023/06/16 03:53:19;;;;;;;3.65;3.35;;;18.10;99.90;;;;;;5022233;28;20200;-75
2023/06/16 03:55:48;;;;;;;3.25;3.05;;;18.10;99.90;;;;;;5019555;28;20203;-75
2023/06/16 03:58:15;;;;;;;3.60;3.38;;;18.10;99.90;;;;;;5017931;28;20216;-75
2023/06/16 04:00:43;;;;;;;3.28;3.08;;;18.20;99.90;;;;;;5031156;28;20187;-76
2023/06/16 04:03:10;;;;;;;3.95;3.55;;;18.20;99.90;;;;;;5020272;28;20207;-75
2023/06/16 04:05:37;;;;;;;3.47;3.22;;;18.20;99.90;;;;;;5021708;28;20295;-76
2023/06/16 04:08:05;;;;;;;3.80;3.50;;;18.30;99.90;;;;;;5016995;28;20239;-75
2023/06/16 04:10:31;;;;;;;3.75;3.45;;;18.30;99.90;;;;;;5017079;28;20286;-75
2023/06/16 04:13:00;;;;;;;3.85;3.55;;;18.40;99.90;;;;;;5016812;28;20226;-75
2023/06/16 04:15:27;;;;;;;4.00;3.70;;;18.20;99.90;;;;;;5018650;28;20573;-76
2023/06/16 04:17:54;;;;;;;3.33;3.13;;;18.10;99.90;;;;;;5017230;28;20877;-76
2023/06/16 04:20:21;;;;;;;3.40;3.20;;;18.10;99.90;;;;;;5019077;28;20199;-76
2023/06/16 04:22:48;;;;;;;3.95;3.65;;;18.10;99.90;;;;;;5015735;28;20224;-75
2023/06/16 04:25:14;;;;;;;3.40;3.20;;;18.20;99.90;;;;;;5014647;28;20789;-75
2023/06/16 04:27:43;;;;;;;3.30;3.10;;;18.20;99.90;;;;;;5015278;28;20219;-75
2023/06/16 04:30:12;;;;;;;3.65;3.35;;;18.20;99.90;;;;;;5017032;28;20331;-75
2023/06/16 04:32:40;;;;;;;4.20;3.17;;;18.30;99.90;;;;;;5012468;28;20204;-75
2023/06/16 04:35:07;;;;;;;3.33;3.13;;;18.40;99.90;;;;;;5016595;28;20195;-75
2023/06/16 04:37:34;;;;;;;3.72;3.42;;;18.40;99.90;;;;;;5011663;28;20262;-76
2023/06/16 04:40:03;;;;;;;3.92;3.55;;;18.50;99.90;;;;;;5020132;28;20290;-76
2023/06/16 04:42:30;;;;;;;3.70;3.40;;;18.50;99.90;;;;;;5012234;28;20196;-75
2023/06/16 04:44:59;;;;;;;3.20;3.00;;;18.60;99.90;;;;;;5011718;28;20195;-74
2023/06/16 04:47:27;;;;;;;3.50;3.30;;;18.60;99.90;;;;;;5019514;28;20247;-76
2023/06/16 04:49:54;;;;;;;3.70;3.40;;;18.60;99.90;;;;;;5021609;28;20227;-76
2023/06/16 04:52:21;;;;;;;3.10;2.85;;;18.70;99.90;;;;;;5020210;28;20204;-75
2023/06/16 04:54:48;;;;;;;3.33;3.13;;;18.70;99.90;;;;;;5018921;28;20628;-76
2023/06/16 04:57:15;;;;;;;4.30;3.50;;;18.70;99.90;;;;;;5037498;28;20216;-75
2023/06/16 04:59:42;;;;;;;4.13;3.72;;;18.70;99.90;;;;;;5012513;28;20905;-75
2023/06/16 05:02:09;;;;;;;4.32;3.83;;;18.60;99.90;;;;;;5020078;28;20291;-75
2023/06/16 05:04:42;;;;;;;4.25;3.95;;;18.50;99.90;;;;;;5021374;28;20257;-75
2023/06/16 05:07:10;;;;;;;4.05;3.75;;;18.30;99.90;;;;;;5024187;28;20251;-75
2023/06/16 05:09:38;;;;;;;3.28;3.03;;;18.30;99.90;;;;;;5021955;28;20203;-76
2023/06/16 05:12:33;;;;;;;3.35;3.03;;;18.40;99.90;;;;;;5132242;27;20276;-76
2023/06/16 05:15:00;;;;;;;3.53;3.33;;;18.50;99.90;;;;;;5130874;27;20199;-76
2023/06/16 05:17:27;;;;;;;4.43;3.17;;;18.60;99.90;;;;;;5130063;27;20315;-75
2023/06/16 05:19:54;;;;;;;5.55;3.17;;;18.70;99.90;;;;;;5130436;27;20208;-76
2023/06/16 05:22:23;;;;;;;3.50;3.20;;;18.90;99.90;;;;;;5137475;27;20298;-76
2023/06/16 05:24:53;;;;;;;4.10;3.80;;;18.90;99.90;;;;;;5136715;27;20200;-77
2023/06/16 05:27:23;;;;;;;3.72;3.42;;;18.80;99.90;;;;;;5128167;27;20824;-75
2023/06/16 05:29:51;;;;;;;4.13;3.83;;;18.70;99.90;;;;;;5128196;27;20695;-78
2023/06/16 05:32:19;;;;;;;4.35;4.05;;;18.50;99.90;;;;;;5148932;27;20232;-77
2023/06/16 05:34:47;;;;;;;4.43;4.03;;;18.60;99.90;;;;;;5122412;27;20203;-75
2023/06/16 05:37:17;;;;;;;4.65;4.32;;;18.90;99.90;;;;;;5118645;27;20199;-80
2023/06/16 05:39:44;;;;;;;4.47;4.07;;;19.20;99.90;;;;;;5123723;27;20286;-79
2023/06/16 05:42:14;;;;;;;5.55;4.50;;;19.50;99.90;;;;;;5122601;27;20212;-78
2023/06/16 05:44:41;;;;;;;4.28;3.95;;;19.80;99.90;;;;;;5123896;27;20192;-79
2023/06/16 05:47:09;;;;;;;5.28;4.45;;;20.10;99.90;;;;;;5125357;27;20885;-76
2023/06/16 05:49:37;;;;;;;4.40;4.10;;;20.40;99.90;;;;;;5118285;27;20200;-76
2023/06/16 05:52:05;;;;;;;4.30;4.00;;;20.30;99.90;;;;;;5123463;27;20219;-78
2023/06/16 05:54:32;;;;;;;4.00;3.70;;;20.40;99.90;;;;;;5128301;27;20907;-79
2023/06/16 05:57:00;;;;;;;4.30;3.90;;;20.60;99.90;;;;;;5122486;27;20311;-79
2023/06/16 05:59:27;;;;;;;4.10;3.80;;;20.60;99.90;;;;;;5124900;27;20257;-80
2023/06/16 06:01:54;;;;;;;5.10;4.65;;;20.40;99.90;;;;;;5123798;27;20197;-78
2023/06/16 06:04:34;;;;;;;5.07;4.68;;;20.20;99.90;;;;;;5119882;27;20671;-79
2023/06/16 06:07:01;;;;;;;5.03;4.40;;;19.90;99.90;;;;;;5129158;27;20223;-77
2023/06/16 06:09:28;;;;;;;5.18;4.07;;;19.70;99.90;;;;;;5133523;27;20298;-79
2023/06/16 06:11:55;;;;;;;4.78;4.22;;;19.60;99.90;;;;;;5131879;27;20251;-77
2023/06/16 06:14:22;;;;;;;4.30;3.92;;;19.60;99.90;;;;;;5126159;27;20201;-77
2023/06/16 06:16:49;;;;;;;4.43;4.10;;;19.70;99.90;;;;;;5135635;27;20255;-78
2023/06/16 06:19:16;;;;;;;5.25;4.85;;;19.90;99.90;;;;;;5123894;27;20197;-77
2023/06/16 06:21:45;;;;;;;4.93;4.55;;;20.00;99.90;;;;;;5127807;27;20658;-77
2023/06/16 06:24:14;;;;;;;5.05;4.45;;;20.20;99.90;;;;;;5113588;27;20228;-79
2023/06/16 06:26:41;;;;;;;5.15;4.65;;;20.40;99.90;;;;;;5102921;27;20193;-78
2023/06/16 06:29:09;;;;;;;5.38;4.90;;;20.60;99.90;;;;;;5103154;27;20604;-79
2023/06/16 06:31:36;;;;;;;6.72;4.85;;;20.70;99.90;;;;;;5110753;27;20212;-80
2023/06/16 06:34:03;;;;;;;5.15;4.75;;;20.70;99.90;;;;;;5108573;27;20283;-81
2023/06/16 06:36:30;;;;;;;5.35;4.85;;;20.70;99.90;;;;;;5109987;27;20284;-81
2023/06/16 06:38:58;;;;;;;4.63;4.22;;;20.70;99.90;;;;;;5098299;27;20281;-79
2023/06/16 06:41:26;;;;;;;5.20;4.72;;;20.70;99.90;;;;;;5111243;27;20193;-80
2023/06/16 06:43:53;;;;;;;4.57;4.28;;;20.70;99.90;;;;;;5113058;27;20233;-84
2023/06/16 06:46:21;;;;;;;5.43;4.97;;;20.90;99.90;;;;;;5112430;27;20205;-80
2023/06/16 06:48:48;;;;;;;5.00;4.53;;;21.00;99.90;;;;;;5108622;27;20256;-79
2023/06/16 06:51:15;;;;;;;5.40;5.00;;;21.10;99.90;;;;;;5116003;27;20216;-81
2023/06/16 06:53:43;;;;;;;5.20;4.80;;;21.20;99.90;;;;;;5119765;27;20252;-80
2023/06/16 06:56:11;;;;;;;6.82;4.45;;;21.10;99.90;;;;;;5106048;27;20254;-79
2023/06/16 06:58:38;;;;;;;5.13;4.72;;;21.30;99.90;;;;;;5105383;27;20348;-81
2023/06/16 07:01:05;;;;;;;5.78;5.28;;;21.40;99.90;;;;;;5109576;27;20208;-80
2023/06/16 07:03:32;;;;;;;5.03;4.63;;;21.30;99.90;;;;;;5106357;27;20193;-79
2023/06/16 07:05:59;;;;;;;6.13;4.95;;;21.30;99.90;;;;;;5113874;27;20228;-80
2023/06/16 07:08:26;;;;;;;5.53;5.00;;;21.20;99.90;;;;;;5102431;27;20208;-80
2023/06/16 07:10:53;;;;;;;5.40;5.00;;;21.00;99.90;;;;;;5112018;27;20227;-80
2023/06/16 07:13:21;;;;;;;6.90;4.75;;;21.20;99.90;;;;;;5107736;27;20666;-79
2023/06/16 07:15:48;;;;;;;7.43;4.80;;;21.30;99.90;;;;;;5106002;27;20196;-78
2023/06/16 07:18:15;;;;;;;4.72;4.32;;;21.50;99.90;;;;;;5110889;27;20280;-80
2023/06/16 07:20:42;;;;;;;5.00;4.50;;;21.60;99.90;;;;;;5104041;27;20201;-79
2023/06/16 07:23:09;;;;;;;4.97;4.57;;;21.80;99.90;;;;;;5101879;27;20709;-79
2023/06/16 07:25:36;;;;;;;6.75;5.15;;;22.00;99.90;;;;;;5128083;27;20289;-81
2023/06/16 07:28:04;;;;;;;4.75;4.20;;;22.10;99.90;;;;;;5105695;27;20248;-79
2023/06/16 07:30:33;;;;;;;5.13;4.60;;;22.20;99.90;;;;;;5102336;27;20215;-78
2023/06/16 07:32:59;;;;;;;4.55;4.25;;;22.30;99.90;;;;;;5106814;27;20269;-81
2023/06/16 07:35:26;;;;;;;4.63;4.22;;;22.40;99.90;;;;;;5115743;27;20753;-79
2023/06/16 07:37:53;;;;;;;4.82;4.43;;;22.40;99.90;;;;;;5111889;27;20220;-80
2023/06/16 07:40:20;;;;;;;4.72;4.32;;;22.50;99.90;;;;;;5109894;27;20292;-79
2023/06/16 07:42:48;;;;;;;4.18;3.83;;;22.60;99.90;;;;;;5102747;27;20958;-78
2023/06/16 07:45:17;;;;;;;4.25;3.85;;;22.80;99.90;;;;;;5104681;27;20221;-78
2023/06/16 07:47:46;;;;;;;4.47;4.07;;;23.00;99.90;;;;;;5104536;27;20253;-79
2023/06/16 07:50:13;;;;;;;4.72;4.30;;;23.00;99.90;;;;;;5103547;27;20301;-78
2023/06/16 07:52:41;;;;;;;4.78;4.38;;;22.90;99.90;;;;;;5107492;27;20219;-79
2023/06/16 07:55:09;;;;;;;5.95;4.28;;;22.90;99.90;;;;;;5107683;27;21174;-79
2023/06/16 07:57:38;;;;;;;6.80;4.40;;;23.00;99.90;;;;;;5102587;27;20348;-77
2023/06/16 08:00:11;;;;;;;4.53;4.13;;;23.20;99.90;;;;;;5102358;27;20200;-78
2023/06/16 08:02:39;;;;;;;4.75;4.38;;;23.20;99.90;;;;;;5108587;27;20193;-78
2023/06/16 08:05:08;;;;;;;5.55;3.60;;;23.30;99.90;;;;;;5098792;27;20309;-79
2023/06/16 08:07:36;;;;;;;4.30;3.72;;;23.40;99.90;;;;;;5106403;27;20217;-79
2023/06/16 08:10:04;;;;;;;4.70;4.32;;;23.50;99.90;;;;;;5103369;27;20205;-76
2023/06/16 08:12:32;;;;;;;6.43;4.75;;;23.50;99.90;;;;;;5106377;27;20236;-77
2023/06/16 08:14:59;;;;;;;4.22;3.83;;;23.50;99.90;;;;;;5096652;27;20784;-78
2023/06/16 08:17:26;;;;;;;3.97;3.58;;;23.00;99.90;;;;;;5099292;27;20706;-78
2023/06/16 08:19:53;;;;;;;4.22;3.83;;;22.60;99.90;;;;;;5106603;27;20201;-79
2023/06/16 08:22:22;;;;;;;4.80;4.40;;;22.40;99.90;;;;;;5102357;27;20728;-77
2023/06/16 08:24:49;;;;;;;4.07;3.78;;;22.60;99.90;;;;;;5108386;27;20287;-80
2023/06/16 08:27:16;;;;;;;5.82;4.45;;;22.90;99.90;;;;;;5103776;27;20713;-78
2023/06/16 08:29:43;;;;;;;4.95;4.22;;;23.30;99.90;;;;;;5097276;27;21042;-78
2023/06/16 08:32:10;;;;;;;4.90;4.07;;;23.60;99.90;;;;;;5107874;27;20243;-80
2023/06/16 08:34:37;;;;;;;4.63;4.32;;;23.70;99.90;;;;;;5104389;27;20193;-78
2023/06/16 08:37:05;;;;;;;5.43;3.83;;;23.90;99.90;;;;;;5109456;27;20678;-78
2023/06/16 08:39:33;;;;;;;4.07;3.78;;;24.20;99.90;;;;;;5104513;27;20193;-77
2023/06/16 08:42:00;;;;;;;4.72;4.32;;;24.80;99.90;;;;;;5109272;27;20277;-79
2023/06/16 08:44:29;;;;;;;4.65;4.28;;;24.70;99.90;;;;;;5109776;27;20197;-78
2023/06/16 08:46:57;;;;;;;4.25;3.85;;;24.20;99.90;;;;;;5109532;27;20221;-79
2023/06/16 08:49:25;;;;;;;5.03;4.53;;;23.60;99.90;;;;;;5103069;27;20201;-78
2023/06/16 08:51:53;;;;;;;4.72;4.32;;;23.20;99.90;;;;;;5107172;27;20211;-79
2023/06/16 08:54:21;;;;;;;4.78;3.90;;;22.90;99.90;;;;;;5108797;27;20941;-79
2023/06/16 08:56:51;;;;;;;3.65;3.45;;;23.20;99.90;;;;;;5105496;27;20765;-80
2023/06/16 08:59:20;;;;;;;4.50;4.10;;;23.80;99.90;;;;;;5099938;27;20208;-79
2023/06/16 09:01:49;;;;;;;4.22;3.92;;;24.30;99.90;;;;;;5110519;27;20199;-78
2023/06/16 09:04:16;;;;;;;5.03;4.32;;;24.50;99.90;;;;;;5105022;28;20207;-78
2023/06/16 09:06:45;;;;;;;4.80;3.88;;;24.80;99.90;;;;;;5112805;27;20228;-80
2023/06/16 09:09:14;;;;;;;3.88;3.55;;;25.20;99.90;;;;;;5111687;28;20649;-79
2023/06/16 09:11:41;;;;;;;3.85;3.55;;;25.40;99.90;;;;;;5105146;28;20213;-79
2023/06/16 09:14:14;;;;;;;3.72;3.42;;;25.60;99.90;;;;;;5110194;27;20188;-78
2023/06/16 09:16:42;;;;;;;3.97;3.53;;;25.30;99.90;;;;;;5106896;28;20204;-79
2023/06/16 09:19:10;;;;;;;4.15;3.75;;;24.80;99.90;;;;;;5118959;28;20215;-81
2023/06/16 09:21:38;;;;;;;3.92;3.63;;;24.60;99.90;;;;;;5107987;28;21602;-80
2023/06/16 09:24:06;;;;;;;4.07;3.67;;;25.00;99.90;;;;;;5104017;28;20211;-81
2023/06/16 09:26:37;;;;;;;4.03;3.72;;;25.30;99.90;;;;;;5109874;28;20197;-80
2023/06/16 09:29:23;;;;;;;3.70;3.40;;;25.40;99.90;;;;;;5106801;28;20594;-81
2023/06/16 09:31:50;;;;;;;4.05;3.67;;;25.60;99.90;;;;;;5111679;27;20227;-81
2023/06/16 09:34:18;;;;;;;3.70;3.40;;;26.00;99.90;;;;;;5109906;28;20268;-81
2023/06/16 09:36:45;;;;;;;3.28;3.08;;;25.90;99.90;;;;;;5101725;28;20273;-80
2023/06/16 09:39:25;;;;;;;3.38;2.97;;;25.40;99.90;;;;;;5110917;27;20824;-80
2023/06/16 09:41:53;;;;;;;4.13;3.72;;;25.00;99.90;;;;;;5107054;28;20212;-80
2023/06/16 09:44:24;;;;;;;4.40;4.00;;;24.70;99.90;;;;;;5119343;28;20491;-81
2023/06/16 09:46:51;;;;;;;3.58;3.28;;;24.50;99.90;;;;;;5112302;28;20293;-81
2023/06/16 09:49:22;;;;;;;3.67;3.45;;;24.40;99.90;;;;;;5103020;27;20902;-80
2023/06/16 09:51:53;;;;;;;3.35;3.15;;;24.30;99.90;;;;;;5108099;28;20615;-80
2023/06/16 09:54:21;;;;;;;3.65;3.35;;;24.30;99.90;;;;;;5103876;28;20287;-80
2023/06/16 09:56:48;;;;;;;3.63;3.33;;;24.30;99.90;;;;;;5106792;27;20352;-80
2023/06/16 09:59:16;;;;;;;3.63;3.42;;;24.20;99.90;;;;;;5107427;27;20258;-80
2023/06/16 10:01:47;;;;;;;3.78;3.47;;;24.20;99.90;;;;;;5105639;27;20305;-80
2023/06/16 10:04:16;;;;;;;3.90;3.20;;;24.30;99.90;;;;;;5113852;27;20237;-80
2023/06/16 10:06:49;;;;;;;4.10;3.70;;;24.30;99.90;;;;;;5107721;27;20208;-80
2023/06/16 10:09:18;;;;;;;4.07;3.75;;;24.10;99.90;;;;;;5106121;27;20197;-78
2023/06/16 10:11:47;;;;;;;5.10;3.85;;;24.10;99.90;;;;;;5113232;27;20207;-80
2023/06/16 10:14:18;;;;;;;4.35;4.05;;;24.20;99.90;;;;;;5105700;27;20689;-80
2023/06/16 10:16:50;;;;;;;3.97;3.63;;;24.20;99.90;;;;;;5103553;27;20342;-80
2023/06/16 10:19:25;;;;;;;3.78;3.47;;;24.40;99.90;;;;;;5106655;27;20192;-80
2023/06/16 10:21:52;;;;;;;4.18;3.47;;;25.00;99.90;;;;;;5109718;27;20224;-80
2023/06/16 10:24:19;;;;;;;5.03;3.58;;;25.70;99.90;;;;;;5106962;27;20197;-80
2023/06/16 10:26:46;;;;;;;3.85;3.28;;;26.10;99.90;;;;;;5101064;27;20224;-80
2023/06/16 10:29:16;;;;;;;4.05;3.72;;;26.40;99.90;;;;;;5112481;27;20221;-81
2023/06/16 10:31:45;;;;;;;3.90;3.53;;;26.60;99.90;;;;;;5111739;27;20401;-80
2023/06/16 10:34:20;;;;;;;4.13;3.70;;;26.70;99.90;;;;;;5111960;27;20683;-79
2023/06/16 10:36:51;;;;;;;3.45;3.25;;;26.40;99.90;;;;;;5103486;27;20197;-79
2023/06/16 10:39:18;;;;;;;5.85;3.58;;;25.90;99.90;;;;;;5110364;27;20869;-80
2023/06/16 10:41:54;;;;;;;3.47;3.20;;;25.50;99.90;;;;;;5111829;27;20965;-80
2023/06/16 10:44:29;;;;;;;4.05;3.40;;;25.40;99.90;;;;;;5097763;27;20208;-80
2023/06/16 10:47:29;;;;;;;3.15;2.92;;;25.50;99.90;;;;;;5108991;27;20269;-79
2023/06/16 10:49:58;;;;;;;3.70;3.40;;;25.30;99.90;;;;;;5106899;27;20208;-81
2023/06/16 10:52:52;;;;;;;4.20;3.40;;;25.60;99.90;;;;;;5105858;27;20386;-80
2023/06/16 10:55:35;;;;;;;3.50;3.20;;;26.20;99.90;;;;;;5105606;27;20291;-79
2023/06/16 10:58:26;;;;;;;5.68;3.50;;;26.70;99.90;;;;;;5099964;27;20212;-76
2023/06/16 11:01:24;;;;;;;4.00;3.67;;;27.20;99.90;;;;;;5097455;27;20212;-76
2023/06/16 11:04:00;;;;;;;3.80;3.50;;;27.40;99.90;;;;;;5099628;27;20655;-76
2023/06/16 11:06:49;;;;;;;3.55;3.25;;;27.50;99.90;;;;;;5105813;27;20302;-77
2023/06/16 11:09:16;;;;;;;3.72;3.42;;;27.60;99.90;;;;;;5112892;27;20196;-78
2023/06/16 11:11:43;;;;;;;3.47;3.17;;;27.30;99.90;;;;;;5101768;27;20240;-78
2023/06/16 11:14:11;;;;;;;4.63;3.35;;;27.40;99.90;;;;;;5100098;27;20883;-78
2023/06/16 11:16:37;;;;;;;3.50;3.20;;;27.60;99.90;;;;;;5104874;27;20212;-77
2023/06/16 11:19:04;;;;;;;5.18;3.00;;;27.90;99.90;;;;;;5104538;27;20201;-77
2023/06/16 11:21:33;;;;;;;3.60;3.30;;;28.00;99.90;;;;;;5102296;27;20349;-77
2023/06/16 11:24:09;;;;;;;3.60;3.30;;;28.30;99.90;;;;;;5102624;27;20201;-79
2023/06/16 11:26:37;;;;;;;3.25;3.05;;;28.30;99.90;;;;;;5104906;27;20315;-78
2023/06/16 11:29:06;;;;;;;3.65;3.00;;;28.00;99.90;;;;;;5109603;27;20236;-78
2023/06/16 11:31:35;;;;;;;3.25;2.95;;;27.60;99.90;;;;;;5104042;27;20300;-78
2023/06/16 11:34:02;;;;;;;3.28;2.97;;;27.40;99.90;;;;;;5108369;27;20240;-80
2023/06/16 11:36:29;;;;;;;3.63;2.85;;;26.90;99.90;;;;;;5104400;27;20246;-78
2023/06/16 11:39:00;;;;;;;3.85;3.00;;;26.40;99.90;;;;;;5103269;27;20322;-80
2023/06/16 11:41:29;;;;;;;3.00;2.70;;;26.10;99.90;;;;;;5099603;27;20205;-79
2023/06/16 11:43:57;;;;;;;2.72;2.53;;;26.50;99.90;;;;;;5100945;27;20295;-79
2023/06/16 11:46:26;;;;;;;3.42;2.88;;;27.30;99.90;;;;;;5102885;27;20269;-79
2023/06/16 11:48:53;;;;;;;3.30;3.03;;;27.90;99.90;;;;;;5099856;27;20228;-80
2023/06/16 11:51:21;;;;;;;3.35;3.05;;;28.40;99.90;;;;;;5103273;27;20735;-81
2023/06/16 11:53:49;;;;;;;3.90;2.90;;;28.80;99.90;;;;;;5102259;27;20217;-79
2023/06/16 11:56:18;;;;;;;3.35;3.15;;;28.80;99.90;;;;;;5098849;27;20196;-79
2023/06/16 11:58:48;;;;;;;2.90;2.70;;;28.40;99.90;;;;;;5098395;27;20220;-80
2023/06/16 12:01:16;;;;;;;5.85;2.97;;;28.10;99.90;;;;;;5100452;27;20240;-79
2023/06/16 12:03:45;;;;;;;4.30;3.42;;;28.30;99.90;;;;;;5098173;27;20271;-81
2023/06/16 12:06:13;;;;;;;3.47;3.17;;;28.10;99.90;;;;;;5104868;27;20838;-80
2023/06/16 12:08:42;;;;;;;3.03;2.83;;;28.20;99.90;;;;;;5100060;27;20220;-79
2023/06/16 12:11:10;;;;;;;4.43;3.17;;;28.20;99.90;;;;;;5098648;27;20527;-79
2023/06/16 12:13:39;;;;;;;3.05;2.85;;;28.40;99.90;;;;;;5102709;27;20209;-79
2023/06/16 12:16:09;;;;;;;3.40;3.10;;;28.30;99.90;;;;;;5101039;27;20208;-80
2023/06/16 12:18:36;;;;;;;3.00;2.60;;;27.90;99.90;;;;;;5097826;27;20224;-79
2023/06/16 12:21:17;;;;;;;2.97;2.78;;;27.40;99.90;;;;;;5098019;27;20771;-80
2023/06/16 12:23:48;;;;;;;3.03;2.78;;;26.80;99.90;;;;;;5096068;27;20773;-79
2023/06/16 12:26:32;;;;;;;3.22;2.92;;;26.50;99.90;;;;;;5094601;27;20637;-79
2023/06/16 12:29:02;;;;;;;2.78;2.58;;;26.30;99.90;;;;;;5097079;27;20229;-79
2023/06/16 12:31:31;;;;;;;2.58;2.38;;;26.20;99.90;;;;;;5103241;27;20192;-80
2023/06/16 12:33:58;;;;;;;2.95;2.75;;;26.40;99.90;;;;;;5099705;27;20213;-80
2023/06/16 12:36:26;;;;;;;4.20;3.00;;;27.20;99.90;;;;;;5101111;27;20205;-79
2023/06/16 12:38:55;;;;;;;3.60;3.05;;;27.90;99.90;;;;;;5098096;27;20227;-80
2023/06/16 12:41:22;;;;;;;3.33;3.13;;;28.00;99.90;;;;;;5100705;27;20200;-80
2023/06/16 12:43:51;;;;;;;3.55;3.25;;;27.60;99.90;;;;;;5101109;27;20278;-80
2023/06/16 12:46:20;;;;;;;3.40;3.10;;;27.40;99.90;;;;;;5099249;27;20210;-79
2023/06/16 12:48:47;;;;;;;3.30;3.00;;;26.90;99.90;;;;;;5099069;27;20664;-79
2023/06/16 12:51:17;;;;;;;3.85;3.45;;;27.10;99.90;;;;;;5100365;27;20215;-79
2023/06/16 12:53:45;;;;;;;3.50;3.20;;;27.50;99.90;;;;;;5098272;27;20212;-78
2023/06/16 12:56:14;;;;;;;3.47;3.13;;;27.20;99.90;;;;;;5095875;27;20286;-80